Time;durP1;ratioP1;P1;durP2;ratioP2;P2;SDS_P1;SDS_P2;PMS_P1;PMS_P2;Temp;Humidity;BMP_temperature;BMP_pressure;BME280_temperature;BME280_humidity;BME280_pressure;Samples;Min_cycle;Max_cycle;Signal;HPM_P1;HPM_P2
2023/06/01 00:02:00;;;;;;;15.10;6.97;;;12.30;99.90;;;;;;7376387;19;20018;-58
2023/06/01 00:04:26;;;;;;;17.70;9.27;;;12.20;99.90;;;;;;7375151;19;20059;-65
2023/06/01 00:06:52;;;;;;;14.07;7.90;;;12.20;99.90;;;;;;7378029;19;20018;-59
2023/06/01 00:09:18;;;;;;;16.23;7.53;;;12.20;99.90;;;;;;7376233;19;20018;-65
2023/06/01 00:11:44;;;;;;;17.70;8.05;;;12.10;99.90;;;;;;7374549;19;20717;-65
2023/06/01 00:18:35;;;;;;;13.73;7.63;;;12.20;99.90;;;;;;7374335;19;19994;-66
2023/06/01 00:21:05;;;;;;;14.65;7.78;;;12.10;99.90;;;;;;7376733;19;20015;-66
2023/06/01 00:23:32;;;;;;;13.52;6.82;;;12.00;99.90;;;;;;7374760;19;20014;-66
2023/06/01 00:25:58;;;;;;;15.75;7.78;;;12.00;99.90;;;;;;7376814;19;20051;-66
2023/06/01 00:28:24;;;;;;;13.25;6.40;;;12.00;99.90;;;;;;7376472;19;20549;-66
2023/06/01 00:30:54;;;;;;;19.17;6.28;;;11.90;99.90;;;;;;7375226;19;20026;-65
2023/06/01 00:33:21;;;;;;;19.33;6.72;;;11.90;99.90;;;;;;7369762;19;20021;-58
2023/06/01 00:35:49;;;;;;;14.70;8.43;;;11.90;99.90;;;;;;7370413;19;20023;-59
2023/06/01 00:38:16;;;;;;;19.33;6.55;;;11.90;99.90;;;;;;7373604;19;20098;-58
2023/06/01 00:40:45;;;;;;;13.98;6.53;;;11.90;99.90;;;;;;7371825;19;20896;-66
2023/06/01 00:43:11;;;;;;;13.63;6.63;;;12.00;99.90;;;;;;7372382;19;20027;-66
2023/06/01 00:45:37;;;;;;;14.23;5.85;;;12.00;99.90;;;;;;7371807;19;20011;-66
2023/06/01 00:48:04;;;;;;;13.27;6.45;;;12.00;99.90;;;;;;7372106;19;20018;-59
2023/06/01 00:50:31;;;;;;;15.35;7.70;;;12.00;99.90;;;;;;7373860;19;20011;-60
2023/06/01 00:53:00;;;;;;;14.35;6.70;;;12.00;99.90;;;;;;7368165;19;20024;-59
2023/06/01 00:55:27;;;;;;;14.40;7.22;;;12.00;99.90;;;;;;7375635;19;20026;-59
2023/06/01 00:57:55;;;;;;;17.92;7.72;;;12.00;99.90;;;;;;7377893;19;20054;-66
2023/06/01 01:00:22;;;;;;;11.45;7.25;;;12.00;99.90;;;;;;7377000;19;20647;-58
2023/06/01 01:02:49;;;;;;;14.05;7.93;;;12.00;99.90;;;;;;7376988;19;20022;-66
2023/06/01 01:05:19;;;;;;;15.52;7.85;;;12.00;99.90;;;;;;7375032;19;20018;-59
2023/06/01 01:07:54;;;;;;;13.90;7.07;;;12.00;99.90;;;;;;7376316;19;20018;-59
2023/06/01 01:10:41;;;;;;;13.73;7.45;;;12.00;99.90;;;;;;7375208;19;20074;-59
2023/06/01 01:13:19;;;;;;;16.70;7.55;;;12.10;99.90;;;;;;7373151;19;20765;-59
2023/06/01 01:16:29;;;;;;;17.65;7.53;;;12.00;99.90;;;;;;7371310;19;20026;-59
2023/06/01 01:19:08;;;;;;;15.23;7.30;;;12.10;99.90;;;;;;7370387;19;20023;-59
2023/06/01 01:21:42;;;;;;;18.17;8.32;;;12.00;99.90;;;;;;7371572;19;20078;-59
2023/06/01 01:24:40;;;;;;;14.63;7.57;;;12.00;99.90;;;;;;7372849;19;20414;-59
2023/06/01 01:27:31;;;;;;;17.50;6.43;;;12.00;99.90;;;;;;7370655;19;20059;-65
2023/06/01 01:30:05;;;;;;;14.15;7.50;;;12.00;99.90;;;;;;7372125;19;20495;-66
2023/06/01 01:32:31;;;;;;;13.93;7.53;;;12.00;99.90;;;;;;7371674;19;20015;-66
2023/06/01 01:35:00;;;;;;;16.67;7.43;;;11.90;99.90;;;;;;7373885;19;20483;-66
2023/06/01 01:37:26;;;;;;;14.43;6.90;;;11.90;99.90;;;;;;7378195;19;20022;-67
2023/06/01 01:43:49;;;;;;;12.10;6.20;;;11.90;99.90;;;;;;7386521;19;20508;-66
2023/06/01 01:46:26;;;;;;;16.98;7.68;;;11.80;99.90;;;;;;7385757;19;20851;-66
2023/06/01 01:49:08;;;;;;;11.98;5.55;;;11.80;99.90;;;;;;7384647;19;20015;-66
2023/06/01 01:51:37;;;;;;;12.95;6.93;;;11.80;99.90;;;;;;7384038;19;20035;-67
2023/06/01 01:54:07;;;;;;;10.70;6.50;;;11.80;99.90;;;;;;7385357;19;20020;-66
2023/06/01 01:56:35;;;;;;;12.52;5.93;;;11.80;99.90;;;;;;7382488;19;20037;-67
2023/06/01 01:59:03;;;;;;;11.98;6.72;;;11.70;99.90;;;;;;7384890;19;20015;-66
2023/06/01 02:01:31;;;;;;;12.00;6.13;;;11.70;99.90;;;;;;7384692;19;20034;-66
2023/06/01 02:04:03;;;;;;;14.40;6.68;;;11.60;99.90;;;;;;7386273;19;20390;-66
2023/06/01 02:06:30;;;;;;;16.95;6.65;;;11.60;99.90;;;;;;7378552;19;20094;-66
2023/06/01 02:08:57;;;;;;;12.43;5.90;;;11.70;99.90;;;;;;7374538;19;20101;-67
2023/06/01 02:11:23;;;;;;;15.00;6.55;;;11.60;99.90;;;;;;7374477;19;20014;-66
2023/06/01 02:13:49;;;;;;;13.10;6.25;;;11.70;99.90;;;;;;7372805;19;20026;-66
2023/06/01 02:16:18;;;;;;;15.93;6.55;;;11.60;99.90;;;;;;7373898;19;20015;-66
2023/06/01 02:18:45;;;;;;;13.75;7.15;;;11.60;99.90;;;;;;7373983;19;20053;-67
2023/06/01 02:21:13;;;;;;;10.43;6.03;;;11.50;99.90;;;;;;7373664;19;20047;-66
2023/06/01 02:23:41;;;;;;;13.02;7.28;;;11.60;99.90;;;;;;7375961;19;20022;-66
2023/06/01 02:26:10;;;;;;;13.25;6.72;;;11.70;99.90;;;;;;7380844;19;20014;-66
2023/06/01 02:28:38;;;;;;;18.83;6.50;;;11.60;99.90;;;;;;7382134;19;20014;-66
2023/06/01 02:31:05;;;;;;;14.88;6.50;;;11.60;99.90;;;;;;7379166;19;20026;-66
2023/06/01 02:33:32;;;;;;;12.60;7.72;;;11.60;99.90;;;;;;7379934;19;20022;-66
2023/06/01 02:36:02;;;;;;;13.70;7.03;;;11.50;99.90;;;;;;7380113;19;20014;-66
2023/06/01 02:38:28;;;;;;;14.30;7.35;;;11.50;99.90;;;;;;7381195;19;20024;-66
2023/06/01 02:40:55;;;;;;;13.93;5.97;;;11.50;99.90;;;;;;7370526;19;20049;-66
2023/06/01 02:43:21;;;;;;;15.82;6.70;;;11.60;99.90;;;;;;7381777;19;20021;-66
2023/06/01 02:45:47;;;;;;;13.30;7.15;;;11.50;99.90;;;;;;7379052;19;20022;-66
2023/06/01 02:48:14;;;;;;;15.20;7.80;;;11.60;99.90;;;;;;7375507;19;20019;-66
2023/06/01 02:50:40;;;;;;;14.75;7.07;;;11.60;99.90;;;;;;7374946;19;20749;-58
2023/06/01 02:53:07;;;;;;;12.15;6.78;;;11.50;99.90;;;;;;7375352;19;20018;-59
2023/06/01 02:55:34;;;;;;;12.43;6.85;;;11.50;99.90;;;;;;7374915;19;20007;-59
2023/06/01 02:58:20;;;;;;;14.25;7.30;;;11.60;99.90;;;;;;7373758;19;20018;-59
2023/06/01 03:01:07;;;;;;;18.42;7.05;;;11.50;99.90;;;;;;7362673;19;20042;-60
2023/06/01 03:03:34;;;;;;;16.30;7.75;;;11.60;99.90;;;;;;7376890;19;20477;-59
2023/06/01 03:06:02;;;;;;;11.35;6.70;;;11.50;99.90;;;;;;7379066;19;20010;-59
2023/06/01 03:08:51;;;;;;;12.52;6.93;;;11.50;99.90;;;;;;7374236;19;20534;-59
2023/06/01 03:11:37;;;;;;;15.68;7.80;;;11.60;99.90;;;;;;7377571;19;20526;-59
2023/06/01 03:14:03;;;;;;;11.65;6.90;;;11.60;99.90;;;;;;7377870;19;20790;-59
2023/06/01 03:16:30;;;;;;;15.38;7.70;;;11.60;99.90;;;;;;7373316;19;20011;-59
2023/06/01 03:19:11;;;;;;;10.13;6.50;;;11.60;99.90;;;;;;7378001;19;20015;-59
2023/06/01 03:21:38;;;;;;;14.93;7.85;;;11.60;99.90;;;;;;7376385;19;20283;-59
2023/06/01 03:24:06;;;;;;;16.40;7.35;;;11.70;99.90;;;;;;7377651;19;20031;-58
2023/06/01 03:26:33;;;;;;;13.93;7.70;;;11.70;99.90;;;;;;7376537;19;20014;-59
2023/06/01 03:29:00;;;;;;;13.80;8.25;;;11.60;99.90;;;;;;7375541;19;20018;-59
2023/06/01 03:31:30;;;;;;;17.33;8.38;;;11.70;99.90;;;;;;7375236;19;20025;-59
2023/06/01 03:33:57;;;;;;;16.98;7.43;;;11.60;99.90;;;;;;7377554;19;20018;-59
2023/06/01 03:36:23;;;;;;;18.50;8.05;;;11.60;99.90;;;;;;7374147;19;20489;-59
2023/06/01 03:38:50;;;;;;;14.57;7.57;;;11.60;99.90;;;;;;7375190;19;20018;-59
2023/06/01 03:41:21;;;;;;;16.67;7.43;;;11.60;99.90;;;;;;7375623;19;20075;-66
2023/06/01 03:43:48;;;;;;;13.27;7.10;;;11.60;99.90;;;;;;7374186;19;20021;-59
2023/06/01 03:46:14;;;;;;;10.95;6.75;;;11.70;99.90;;;;;;7374669;19;20010;-59
2023/06/01 03:48:41;;;;;;;12.63;6.57;;;11.60;99.90;;;;;;7370564;19;20029;-59
2023/06/01 03:51:08;;;;;;;12.70;6.43;;;11.70;99.90;;;;;;7373780;19;20018;-59
2023/06/01 03:53:35;;;;;;;14.45;5.72;;;11.60;99.90;;;;;;7371652;19;20501;-58
2023/06/01 03:56:03;;;;;;;11.40;5.18;;;11.60;99.90;;;;;;7371825;19;20018;-66
2023/06/01 03:58:32;;;;;;;12.20;5.00;;;11.60;99.90;;;;;;7369602;19;20286;-66
2023/06/01 04:01:00;;;;;;;11.73;5.88;;;11.60;99.90;;;;;;7370404;19;20014;-66
2023/06/01 04:03:27;;;;;;;12.57;4.97;;;11.60;99.90;;;;;;7370651;19;20501;-65
2023/06/01 04:05:59;;;;;;;9.88;4.53;;;11.60;99.90;;;;;;7375116;19;20028;-65
2023/06/01 04:08:26;;;;;;;11.38;5.65;;;11.60;99.90;;;;;;7374445;19;20018;-66
2023/06/01 04:10:53;;;;;;;8.10;4.75;;;11.70;99.90;;;;;;7373439;19;20371;-65
2023/06/01 04:13:20;;;;;;;10.30;5.10;;;11.60;99.90;;;;;;7370905;19;20030;-65
2023/06/01 04:15:47;;;;;;;8.68;5.72;;;11.60;99.90;;;;;;7371921;19;20659;-66
2023/06/01 04:18:15;;;;;;;9.98;5.28;;;11.60;99.90;;;;;;7372371;19;20092;-65
2023/06/01 04:21:02;;;;;;;9.90;4.97;;;11.60;99.90;;;;;;7373296;19;20606;-65
2023/06/01 04:23:28;;;;;;;10.50;4.80;;;11.70;99.90;;;;;;7371643;19;20131;-66
2023/06/01 04:25:59;;;;;;;7.07;4.43;;;11.70;99.90;;;;;;7375019;19;20029;-65
2023/06/01 04:28:27;;;;;;;10.52;4.72;;;11.80;99.90;;;;;;7372700;19;20018;-65
2023/06/01 04:30:54;;;;;;;11.60;5.30;;;11.80;99.90;;;;;;7373402;19;20021;-66
2023/06/01 04:33:22;;;;;;;10.45;4.90;;;11.80;99.90;;;;;;7373346;19;20019;-65
2023/06/01 04:35:49;;;;;;;10.55;4.38;;;11.80;99.90;;;;;;7372167;19;20365;-65
2023/06/01 04:38:21;;;;;;;9.70;4.70;;;11.80;99.90;;;;;;7370703;19;20018;-66
2023/06/01 04:40:49;;;;;;;11.68;5.00;;;11.80;99.90;;;;;;7369619;19;20026;-66
2023/06/01 04:43:18;;;;;;;14.52;5.38;;;11.80;99.90;;;;;;7372615;19;20114;-65
2023/06/01 04:45:46;;;;;;;9.95;4.97;;;11.90;99.90;;;;;;7371297;19;20101;-65
2023/06/01 04:48:14;;;;;;;14.60;5.72;;;11.90;99.90;;;;;;7374204;19;20480;-66
2023/06/01 04:50:58;;;;;;;14.05;5.80;;;12.00;99.90;;;;;;7371807;19;20531;-65
2023/06/01 04:53:26;;;;;;;11.43;5.88;;;11.90;99.90;;;;;;7370829;19;20026;-66
2023/06/01 04:55:53;;;;;;;14.80;6.15;;;11.90;99.90;;;;;;7371079;19;20041;-66
2023/06/01 04:58:21;;;;;;;14.95;6.63;;;11.90;99.90;;;;;;7371357;19;20014;-66
2023/06/01 05:00:47;;;;;;;13.02;5.90;;;12.00;99.90;;;;;;7368685;19;20022;-65
2023/06/01 05:03:14;;;;;;;14.80;5.88;;;12.00;99.90;;;;;;7367507;19;20022;-66
2023/06/01 05:05:40;;;;;;;12.38;6.35;;;12.00;99.90;;;;;;7363294;19;20913;-66
2023/06/01 05:08:06;;;;;;;16.27;6.45;;;11.90;99.90;;;;;;7364728;19;20019;-66
2023/06/01 05:10:33;;;;;;;12.85;6.55;;;12.00;99.90;;;;;;7364810;19;20033;-64
2023/06/01 05:12:59;;;;;;;16.88;6.40;;;11.90;99.90;;;;;;7371003;19;20028;-66
2023/06/01 05:15:27;;;;;;;12.63;6.55;;;11.90;99.90;;;;;;7367855;19;20049;-66
2023/06/01 05:17:55;;;;;;;14.50;7.43;;;12.00;99.90;;;;;;7368047;19;20015;-65
2023/06/01 05:20:21;;;;;;;16.55;7.18;;;12.00;99.90;;;;;;7370815;19;20022;-66
2023/06/01 05:22:56;;;;;;;14.82;6.70;;;12.00;99.90;;;;;;7369427;19;20033;-65
2023/06/01 05:25:22;;;;;;;15.80;6.53;;;12.00;99.90;;;;;;7370287;19;20103;-66
2023/06/01 05:27:49;;;;;;;11.23;6.57;;;12.00;99.90;;;;;;7368435;19;20024;-66
2023/06/01 05:30:15;;;;;;;13.13;6.80;;;12.00;99.90;;;;;;7367470;19;20106;-66
2023/06/01 05:32:43;;;;;;;12.35;6.72;;;11.90;99.90;;;;;;7368168;19;20038;-66
2023/06/01 05:35:12;;;;;;;13.40;6.57;;;12.00;99.90;;;;;;7366116;19;20018;-66
2023/06/01 05:37:38;;;;;;;11.32;7.03;;;11.90;99.90;;;;;;7365638;19;20027;-58
2023/06/01 05:40:07;;;;;;;11.82;6.70;;;12.00;99.90;;;;;;7366562;19;20086;-58
2023/06/01 05:42:34;;;;;;;11.52;6.57;;;11.90;99.90;;;;;;7364291;19;20352;-58
2023/06/01 05:45:00;;;;;;;11.90;6.60;;;12.00;99.90;;;;;;7365087;19;20829;-58
2023/06/01 05:47:28;;;;;;;17.52;8.02;;;12.00;99.90;;;;;;7364632;19;20026;-66
2023/06/01 05:49:54;;;;;;;14.40;7.28;;;12.00;99.90;;;;;;7363158;19;20018;-66
2023/06/01 05:52:23;;;;;;;14.68;6.82;;;12.00;99.90;;;;;;7363563;19;20102;-65
2023/06/01 05:54:50;;;;;;;12.32;6.78;;;12.10;99.90;;;;;;7365256;19;20035;-66
2023/06/01 05:57:17;;;;;;;11.07;6.72;;;12.00;99.90;;;;;;7365516;19;20479;-55
2023/06/01 05:59:45;;;;;;;14.98;6.47;;;12.00;99.90;;;;;;7361873;19;20018;-65
2023/06/01 06:02:13;;;;;;;20.17;11.15;;;12.00;99.90;;;;;;7366658;19;20026;-65
2023/06/01 06:04:40;;;;;;;13.35;6.57;;;12.20;99.90;;;;;;7361474;19;20885;-58
2023/06/01 06:07:06;;;;;;;9.77;5.88;;;12.10;99.90;;;;;;7370916;19;20839;-65
2023/06/01 06:09:34;;;;;;;10.52;5.90;;;12.20;99.90;;;;;;7368048;19;20026;-57
2023/06/01 06:12:01;;;;;;;12.32;7.10;;;12.10;99.90;;;;;;7371091;19;20026;-65
2023/06/01 06:14:27;;;;;;;16.33;6.35;;;12.10;99.90;;;;;;7368188;19;20017;-58
2023/06/01 06:16:53;;;;;;;10.23;5.72;;;12.10;99.90;;;;;;7368426;19;20022;-57
2023/06/01 06:19:23;;;;;;;13.18;7.10;;;12.00;99.90;;;;;;7368129;19;20052;-58
2023/06/01 06:21:50;;;;;;;14.75;7.10;;;12.10;99.90;;;;;;7367875;19;20628;-66
2023/06/01 06:24:16;;;;;;;12.95;5.38;;;12.10;99.90;;;;;;7375087;19;20014;-58
2023/06/01 06:26:43;;;;;;;9.50;4.97;;;12.10;99.90;;;;;;7373900;19;20026;-58
2023/06/01 06:29:10;;;;;;;7.70;4.43;;;12.10;99.90;;;;;;7374596;19;20022;-66
2023/06/01 06:31:38;;;;;;;10.30;4.63;;;12.10;99.90;;;;;;7372846;19;20021;-66
2023/06/01 06:34:04;;;;;;;11.05;4.63;;;12.00;99.90;;;;;;7374464;19;20433;-58
2023/06/01 06:36:31;;;;;;;10.65;4.88;;;12.10;99.90;;;;;;7373080;19;20010;-58
2023/06/01 06:38:57;;;;;;;7.53;4.43;;;12.20;99.90;;;;;;7372930;19;20367;-58
2023/06/01 06:41:24;;;;;;;9.20;4.85;;;12.20;99.90;;;;;;7369491;19;20018;-58
2023/06/01 06:43:51;;;;;;;9.70;4.78;;;12.30;99.90;;;;;;7369175;19;20022;-58
2023/06/01 06:46:17;;;;;;;9.60;4.60;;;12.30;99.90;;;;;;7369935;19;20022;-59
2023/06/01 06:48:43;;;;;;;11.23;5.85;;;12.30;99.90;;;;;;7366894;19;20018;-58
2023/06/01 06:51:10;;;;;;;10.63;5.03;;;12.40;99.90;;;;;;7374321;19;20837;-59
2023/06/01 06:53:36;;;;;;;14.88;6.25;;;12.40;99.90;;;;;;7369351;19;20014;-58
2023/06/01 06:56:02;;;;;;;12.20;5.40;;;12.40;99.90;;;;;;7372709;19;20029;-66
2023/06/01 06:58:29;;;;;;;10.50;5.43;;;12.40;99.90;;;;;;7374144;19;20383;-67
2023/06/01 07:00:56;;;;;;;10.35;5.43;;;12.50;99.90;;;;;;7370699;19;20039;-66
2023/06/01 07:03:22;;;;;;;9.52;5.28;;;12.50;99.90;;;;;;7373939;19;20044;-66
2023/06/01 07:05:48;;;;;;;8.57;4.93;;;12.60;99.90;;;;;;7375726;19;20024;-66
2023/06/01 07:08:15;;;;;;;8.50;4.90;;;12.70;99.90;;;;;;7370488;19;20064;-66
2023/06/01 07:10:41;;;;;;;12.13;5.72;;;12.70;99.90;;;;;;7370317;19;20821;-66
2023/06/01 07:13:18;;;;;;;10.10;4.88;;;12.80;99.90;;;;;;7372863;19;20481;-66
2023/06/01 07:15:44;;;;;;;14.00;8.15;;;12.70;99.90;;;;;;7367637;19;20015;-66
2023/06/01 07:18:10;;;;;;;10.85;4.75;;;12.80;99.90;;;;;;7375490;19;20515;-65
2023/06/01 07:20:37;;;;;;;9.20;4.90;;;12.90;99.90;;;;;;7367268;19;20086;-66
2023/06/01 07:23:03;;;;;;;9.93;4.70;;;12.90;99.90;;;;;;7366186;19;20042;-66
2023/06/01 07:25:29;;;;;;;10.27;5.28;;;12.90;99.90;;;;;;7367767;19;20018;-66
2023/06/01 07:27:56;;;;;;;8.00;4.82;;;12.90;99.90;;;;;;7371986;19;20018;-66
2023/06/01 07:30:22;;;;;;;11.18;4.40;;;12.80;99.90;;;;;;7371974;19;20445;-66
2023/06/01 07:32:48;;;;;;;6.80;3.53;;;12.70;99.90;;;;;;7362735;19;20033;-66
2023/06/01 07:35:15;;;;;;;7.00;4.20;;;12.80;99.90;;;;;;7373182;19;20026;-66
2023/06/01 07:37:41;;;;;;;6.70;3.50;;;12.80;99.90;;;;;;7372275;19;20026;-65
2023/06/01 07:40:08;;;;;;;6.60;3.60;;;13.00;99.90;;;;;;7374281;19;20509;-65
2023/06/01 07:42:34;;;;;;;10.52;3.53;;;13.00;99.90;;;;;;7373269;19;20010;-66
2023/06/01 07:45:01;;;;;;;6.78;3.88;;;13.00;99.90;;;;;;7375061;19;20022;-65
2023/06/01 07:47:28;;;;;;;6.85;3.67;;;13.20;99.90;;;;;;7375298;19;20014;-66
2023/06/01 07:49:55;;;;;;;9.48;4.75;;;13.20;99.90;;;;;;7371424;19;20019;-66
2023/06/01 07:52:21;;;;;;;8.27;4.03;;;13.20;99.90;;;;;;7371018;19;20575;-66
2023/06/01 07:54:49;;;;;;;11.20;5.03;;;13.30;99.90;;;;;;7374077;19;20018;-66
2023/06/01 07:57:16;;;;;;;8.07;4.15;;;13.50;99.90;;;;;;7366643;19;20386;-66
2023/06/01 07:59:42;;;;;;;9.93;4.68;;;13.40;99.90;;;;;;7372622;19;20027;-66
2023/06/01 08:02:10;;;;;;;9.60;4.55;;;13.60;99.90;;;;;;7369646;19;20018;-66
2023/06/01 08:04:37;;;;;;;10.85;5.45;;;13.70;99.90;;;;;;7368748;19;20059;-66
2023/06/01 08:07:06;;;;;;;9.15;5.05;;;13.60;99.90;;;;;;7370061;19;20062;-65
2023/06/01 08:09:32;;;;;;;11.98;4.15;;;13.60;99.90;;;;;;7371714;19;20022;-66
2023/06/01 08:11:59;;;;;;;12.13;3.60;;;13.60;99.90;;;;;;7374932;19;20021;-69
2023/06/01 08:14:25;;;;;;;9.48;4.28;;;13.70;99.90;;;;;;7376487;19;20028;-59
2023/06/01 08:16:51;;;;;;;10.85;6.32;;;13.60;99.90;;;;;;7375151;19;20493;-59
2023/06/01 08:19:17;;;;;;;8.32;3.80;;;13.70;99.90;;;;;;7373050;19;20501;-58
2023/06/01 08:21:45;;;;;;;8.07;3.58;;;13.70;99.90;;;;;;7372449;19;20029;-58
2023/06/01 08:24:13;;;;;;;12.90;5.10;;;13.90;99.90;;;;;;7375857;19;20026;-58
2023/06/01 08:26:39;;;;;;;6.50;2.95;;;13.90;99.90;;;;;;7372854;19;20133;-59
2023/06/01 08:29:06;;;;;;;7.47;4.57;;;14.00;99.90;;;;;;7372032;19;20021;-60
2023/06/01 08:31:32;;;;;;;3.55;2.40;;;14.00;99.90;;;;;;7367474;19;20031;-60
2023/06/01 08:33:58;;;;;;;5.57;3.03;;;14.10;99.90;;;;;;7369932;19;20038;-60
2023/06/01 08:36:25;;;;;;;3.40;1.90;;;14.10;99.90;;;;;;7369473;19;20021;-60
2023/06/01 08:38:55;;;;;;;5.47;2.92;;;14.10;99.90;;;;;;7369552;19;20759;-60
2023/06/01 08:41:40;;;;;;;5.38;2.03;;;14.20;99.90;;;;;;7364877;19;20090;-61
2023/06/01 08:44:08;;;;;;;8.10;3.15;;;14.30;99.90;;;;;;7366193;19;20103;-60
2023/06/01 08:46:35;;;;;;;8.15;2.70;;;14.10;99.90;;;;;;7364223;19;20101;-60
2023/06/01 08:49:01;;;;;;;6.43;2.72;;;14.10;99.90;;;;;;7363565;19;20282;-60
2023/06/01 08:51:32;;;;;;;6.85;2.67;;;14.20;99.90;;;;;;7366281;19;20026;-61
2023/06/01 08:54:03;;;;;;;7.57;3.05;;;14.30;99.90;;;;;;7365068;19;20039;-61
2023/06/01 08:56:29;;;;;;;6.47;2.75;;;14.40;99.90;;;;;;7366143;19;20116;-60
2023/06/01 08:58:57;;;;;;;5.75;3.35;;;14.50;99.90;;;;;;7370321;19;20022;-61
2023/06/01 09:01:24;;;;;;;6.97;3.40;;;14.50;99.90;;;;;;7367181;19;20018;-60
2023/06/01 09:03:51;;;;;;;6.00;3.08;;;14.40;99.90;;;;;;7367268;19;20044;-64
2023/06/01 09:06:18;;;;;;;8.13;2.60;;;14.50;99.90;;;;;;7367628;19;20022;-65
2023/06/01 09:08:45;;;;;;;6.22;2.70;;;14.60;99.90;;;;;;7367037;19;20050;-65
2023/06/01 09:11:11;;;;;;;6.05;3.78;;;14.50;99.90;;;;;;7371188;19;20026;-70
2023/06/01 09:13:39;;;;;;;8.75;5.80;;;14.50;99.90;;;;;;7369839;19;20781;-72
2023/06/01 09:16:06;;;;;;;6.68;2.85;;;14.60;99.90;;;;;;7370096;19;20018;-71
2023/06/01 09:18:33;;;;;;;5.05;2.83;;;14.60;99.90;;;;;;7370110;19;20546;-71
2023/06/01 09:21:15;;;;;;;7.40;3.88;;;14.40;99.90;;;;;;7371708;19;20098;-70
2023/06/01 09:23:42;;;;;;;7.85;3.50;;;14.70;99.90;;;;;;7368675;19;20014;-70
2023/06/01 09:26:10;;;;;;;5.68;1.73;;;15.00;99.90;;;;;;7378886;19;20018;-67
2023/06/01 09:28:54;;;;;;;3.58;1.92;;;15.20;99.90;;;;;;7390842;19;20018;-66
2023/06/01 09:31:41;;;;;;;4.97;1.30;;;15.20;99.90;;;;;;7391774;19;20018;-66
2023/06/01 09:34:19;;;;;;;2.75;1.48;;;15.00;99.90;;;;;;7390487;19;20018;-66
2023/06/01 09:36:51;;;;;;;3.50;1.63;;;15.10;99.90;;;;;;7388927;19;20007;-66
2023/06/01 09:39:20;;;;;;;4.95;1.77;;;15.20;99.90;;;;;;7389434;19;20100;-66
2023/06/01 09:42:01;;;;;;;2.95;1.67;;;15.10;99.90;;;;;;7383278;19;20043;-60
2023/06/01 09:44:41;;;;;;;3.38;1.40;;;15.20;99.90;;;;;;7372080;19;20093;-60
2023/06/01 09:47:12;;;;;;;2.47;1.20;;;15.10;99.90;;;;;;7370490;19;20068;-68
2023/06/01 09:49:44;;;;;;;2.75;1.33;;;15.00;99.90;;;;;;7383965;19;20105;-65
2023/06/01 09:52:16;;;;;;;2.80;1.20;;;14.80;99.90;;;;;;7382776;19;20061;-66
2023/06/01 09:54:49;;;;;;;2.25;1.60;;;14.70;99.90;;;;;;7381612;19;20094;-66
2023/06/01 09:57:26;;;;;;;4.53;2.13;;;14.80;99.90;;;;;;7388195;19;20018;-65
2023/06/01 09:59:57;;;;;;;4.30;2.13;;;14.80;99.90;;;;;;7384496;19;20031;-61
2023/06/01 10:02:24;;;;;;;6.50;2.70;;;14.60;99.90;;;;;;7380040;19;20018;-61
2023/06/01 10:04:53;;;;;;;6.60;2.60;;;14.60;99.90;;;;;;7379670;19;20014;-61
2023/06/01 10:07:22;;;;;;;4.32;2.75;;;14.70;99.90;;;;;;7395265;19;20014;-65
2023/06/01 10:09:55;;;;;;;5.72;2.80;;;14.60;99.90;;;;;;7390033;19;20119;-65
2023/06/01 10:12:22;;;;;;;4.85;2.60;;;14.70;99.90;;;;;;7393834;19;20454;-65
2023/06/01 10:14:50;;;;;;;5.13;3.22;;;14.60;99.90;;;;;;7394629;19;20506;-66
2023/06/01 10:17:18;;;;;;;8.25;3.63;;;14.50;99.90;;;;;;7392056;19;20046;-66
2023/06/01 10:19:47;;;;;;;8.70;4.00;;;14.30;99.90;;;;;;7391897;19;20129;-66
2023/06/01 10:22:14;;;;;;;8.63;3.92;;;14.30;99.90;;;;;;7392906;19;20022;-65
2023/06/01 10:24:41;;;;;;;8.60;3.95;;;14.40;99.90;;;;;;7392995;19;20022;-66
2023/06/01 10:27:16;;;;;;;10.38;4.68;;;14.40;99.90;;;;;;7384586;19;20499;-61
2023/06/01 10:29:43;;;;;;;8.20;3.63;;;14.40;99.90;;;;;;7374531;19;20019;-61
2023/06/01 10:32:37;;;;;;;7.80;3.67;;;14.60;99.90;;;;;;7378869;19;20014;-61
2023/06/01 10:35:05;;;;;;;9.20;3.50;;;14.50;99.90;;;;;;7378494;19;20023;-60
2023/06/01 10:37:32;;;;;;;9.50;3.70;;;14.50;99.90;;;;;;7377452;19;20035;-61
2023/06/01 10:40:21;;;;;;;13.13;4.28;;;14.80;99.90;;;;;;7379597;19;20030;-60
2023/06/01 10:42:48;;;;;;;8.93;3.35;;;15.00;99.90;;;;;;7376966;19;20026;-61
2023/06/01 10:45:40;;;;;;;7.05;2.55;;;15.10;99.90;;;;;;7377715;19;20402;-61
2023/06/01 10:48:10;;;;;;;7.30;3.15;;;15.40;99.90;;;;;;7378465;19;20099;-61
2023/06/01 10:50:41;;;;;;;7.88;3.40;;;15.20;99.90;;;;;;7377126;19;20018;-62
2023/06/01 10:53:30;;;;;;;13.75;4.00;;;15.40;99.90;;;;;;7375142;19;20379;-61
2023/06/01 10:56:23;;;;;;;6.07;3.25;;;15.40;99.90;;;;;;7372389;19;20498;-61
2023/06/01 10:59:08;;;;;;;9.38;3.60;;;15.20;99.90;;;;;;7365285;19;20014;-67
2023/06/01 11:01:38;;;;;;;16.60;9.98;;;15.10;99.90;;;;;;7371063;19;20509;-65
2023/06/01 11:04:05;;;;;;;35.80;25.10;;;15.30;99.90;;;;;;7377345;19;20525;-66
2023/06/01 11:06:38;;;;;;;12.80;4.25;;;15.50;99.90;;;;;;7380434;19;20018;-66
2023/06/01 11:09:10;;;;;;;21.80;12.65;;;15.40;99.90;;;;;;7365745;19;20780;-67
2023/06/01 11:11:51;;;;;;;13.75;5.55;;;15.40;99.90;;;;;;7367036;19;20082;-67
2023/06/01 11:14:25;;;;;;;11.30;5.50;;;15.30;99.90;;;;;;7376006;19;20048;-60
2023/06/01 11:16:54;;;;;;;12.88;4.68;;;15.40;99.90;;;;;;7376975;19;20113;-60
2023/06/01 11:19:24;;;;;;;13.50;4.15;;;15.30;99.90;;;;;;7378649;19;20029;-60
2023/06/01 11:22:04;;;;;;;9.70;4.43;;;15.30;99.90;;;;;;7377762;19;20026;-61
2023/06/01 11:24:37;;;;;;;11.07;4.55;;;15.30;99.90;;;;;;7374971;19;20026;-63
2023/06/01 11:27:08;;;;;;;44.97;32.80;;;15.20;99.90;;;;;;7379723;19;20061;-63
2023/06/01 11:29:35;;;;;;;34.30;26.67;;;15.30;99.90;;;;;;7378699;19;20490;-63
2023/06/01 11:32:05;;;;;;;21.65;15.05;;;15.30;99.90;;;;;;7379167;19;20022;-63
2023/06/01 11:34:41;;;;;;;9.98;5.28;;;15.40;99.90;;;;;;7377742;19;20019;-63
2023/06/01 11:37:19;;;;;;;14.43;8.75;;;15.50;99.90;;;;;;7374388;19;20018;-67
2023/06/01 11:39:47;;;;;;;35.65;27.75;;;15.40;99.90;;;;;;7372992;19;20845;-67
2023/06/01 11:42:21;;;;;;;25.50;18.52;;;15.40;99.90;;;;;;7377528;19;20022;-63
2023/06/01 11:44:59;;;;;;;16.60;9.93;;;15.70;99.90;;;;;;7376553;19;20026;-61
2023/06/01 11:47:30;;;;;;;17.58;13.82;;;16.00;99.90;;;;;;7381041;19;20640;-61
2023/06/01 11:49:57;;;;;;;12.60;3.40;;;16.20;99.90;;;;;;7376412;19;20021;-62
2023/06/01 11:52:23;;;;;;;8.27;5.53;;;16.20;99.90;;;;;;7377590;19;20466;-62
2023/06/01 11:54:53;;;;;;;14.02;8.23;;;16.50;99.90;;;;;;7375015;19;20026;-63
2023/06/01 11:57:19;;;;;;;14.32;8.82;;;16.60;99.90;;;;;;7371640;19;20018;-63
2023/06/01 11:59:50;;;;;;;17.08;9.95;;;16.40;99.90;;;;;;7373235;19;20849;-61
2023/06/01 12:02:27;;;;;;;12.70;3.63;;;16.60;99.90;;;;;;7376536;19;20023;-61
2023/06/01 12:05:13;;;;;;;10.68;2.95;;;16.60;99.90;;;;;;7370723;19;20026;-60
2023/06/01 12:07:47;;;;;;;15.70;10.93;;;16.40;99.90;;;;;;7373961;19;20474;-60
2023/06/01 12:10:16;;;;;;;64.43;52.05;;;16.60;99.90;;;;;;7371727;19;20011;-60
2023/06/01 12:12:43;;;;;;;10.80;4.90;;;16.80;99.90;;;;;;7370162;19;20584;-60
2023/06/01 12:15:18;;;;;;;8.68;3.08;;;16.70;99.90;;;;;;7369749;19;20025;-60
2023/06/01 12:17:56;;;;;;;41.65;35.03;;;16.70;99.90;;;;;;7372313;19;20057;-61
2023/06/01 12:20:29;;;;;;;10.00;5.07;;;16.70;99.90;;;;;;7371706;19;20018;-60
2023/06/01 12:22:57;;;;;;;8.45;4.20;;;16.60;99.90;;;;;;7373623;19;20026;-60
2023/06/01 12:25:25;;;;;;;16.92;12.25;;;16.80;99.90;;;;;;7373023;19;20070;-62
2023/06/01 12:28:01;;;;;;;16.35;10.38;;;16.90;99.90;;;;;;7371400;19;20033;-62
2023/06/01 12:30:27;;;;;;;10.32;4.13;;;17.00;99.90;;;;;;7368703;19;20018;-66
2023/06/01 12:32:54;;;;;;;12.02;4.75;;;16.90;99.90;;;;;;7367144;19;20026;-68
2023/06/01 12:35:24;;;;;;;9.02;3.10;;;16.90;99.90;;;;;;7369108;19;20018;-68
2023/06/01 12:38:03;;;;;;;35.13;22.85;;;16.80;99.90;;;;;;7367151;19;20024;-67
2023/06/01 12:40:30;;;;;;;9.20;3.63;;;16.60;99.90;;;;;;7367151;19;20018;-67
2023/06/01 12:42:56;;;;;;;9.02;3.70;;;16.60;99.90;;;;;;7367635;19;20118;-67
2023/06/01 12:45:22;;;;;;;11.07;4.18;;;16.60;99.90;;;;;;7368211;19;20029;-67
2023/06/01 12:47:49;;;;;;;12.82;5.43;;;16.40;99.90;;;;;;7370119;19;20105;-67
2023/06/01 12:50:15;;;;;;;9.50;4.57;;;16.40;99.90;;;;;;7371653;19;20588;-67
2023/06/01 12:52:42;;;;;;;10.48;4.70;;;16.40;99.90;;;;;;7369268;19;20663;-67
2023/06/01 12:55:09;;;;;;;10.52;4.13;;;16.60;99.90;;;;;;7367253;19;20018;-67
2023/06/01 12:57:37;;;;;;;9.55;2.83;;;16.60;99.90;;;;;;7364947;19;20025;-66
2023/06/01 13:00:06;;;;;;;9.43;3.72;;;16.90;99.90;;;;;;7374262;19;20022;-67
2023/06/01 13:02:33;;;;;;;7.57;2.88;;;16.90;99.90;;;;;;7371753;19;20046;-67